Meteo Giornale » Osservazioni meteo Italia » Napoli-Capodichino

ore: 22:50 - Osservazioni Meteo Napoli-Capodichino
Lat. 40° 51' N Lon. 14° 18' E Alt. 88 metri s.l.m.

sereno Europe/Rome

26 °C

Sereno

Temp. 24 Ore

22 °C

32 °C

Nord

1.8 Km/h

Dew point 17 °C

Umidità 57 %

Visibilità  10 Km

Il sole sorge alle ore 05:46

Il sole tramonta alle ore 20:32

Data e Ora Cielo e Fenomeni T °C DP °C Um. % Pres. hPa Vis. km Vento km/h
Oggi h: 22:50 sereno Sereno 26 17 57 1014 10 N 1.8
Oggi h: 22:20 sereno Sereno 26 18 61 1014 10 N 3.7
Oggi h: 21:50 sereno Sereno 27 17 54 1014 10 N 0
Oggi h: 21:20 sereno Sereno 27 16 50 1014 10 N 3.7
Oggi h: 20:50 sereno Sereno 28 17 51 1014 10 N/NO 7.4
Oggi h: 20:20 sereno Sereno 28 18 54 1013 10 O/NO 7.4
Oggi h: 19:50 sereno Sereno 29 18 51 1013 10 O 7.4
Oggi h: 19:20 sereno Sereno 29 18 51 1013 10 O/NO 9.3
Oggi h: 18:50 sereno Sereno 29 19 54 1013 10 O/NO 13
Oggi h: 18:20 poco_nuvoloso Poco Nuvoloso 29 19 54 1014 10 O 13
Oggi h: 17:50 poco_nuvoloso Poco Nuvoloso 30 20 55 1014 10 O 18.5
Oggi h: 17:20 poco_nuvoloso Poco Nuvoloso 31 15 37 1014 10 O 16.7
Oggi h: 16:50 poco_nuvoloso Poco Nuvoloso 32 13 31 1014 10 O 14.8
Oggi h: 16:20 poco_nuvoloso Poco Nuvoloso 31 18 45 1014 10 SO 13
Oggi h: 15:50 poco_nuvoloso Poco Nuvoloso 32 22 55 1014 10 SO 13
Oggi h: 15:20 poco_nuvoloso Poco Nuvoloso 30 22 62 1014 10 S 16.7
Oggi h: 14:50 poco_nuvoloso Poco Nuvoloso 31 21 55 1014 10 S 13
Oggi h: 14:20 poco_nuvoloso Poco Nuvoloso 31 20 52 1014 10 S 14.8
Oggi h: 13:50 poco_nuvoloso Poco Nuvoloso 30 21 58 1014 10 S/SO 18.5
Oggi h: 13:20 poco_nuvoloso Poco Nuvoloso 32 18 43 1014 10 S 11.1
Oggi h: 12:50 poco_nuvoloso Poco Nuvoloso 31 19 48 1014 10 S 13
Oggi h: 12:20 poco_nuvoloso Poco Nuvoloso 31 18 45 1014 10 S 11.1
Oggi h: 11:50 sereno Sereno 30 19 51 1014 10 S/SO 7.4
Oggi h: 11:20 sereno Sereno 30 21 58 1014 10 N 5.5
Oggi h: 10:50 sereno Sereno 29 21 62 1014 10 N 5.5
Oggi h: 10:20 sereno Sereno 28 21 65 1014 10 N 5.5
Oggi h: 09:50 sereno Sereno 28 21 65 1014 10 S 7.4
Oggi h: 09:20 sereno Sereno 27 21 69 1014 10 N 7.4
Oggi h: 08:50 sereno Sereno 27 21 69 1014 10 S 7.4
Oggi h: 08:20 sereno Sereno 27 21 69 1014 10 N 3.7
Oggi h: 07:50 sereno Sereno 26 19 65 1014 10 N 3.7
Oggi h: 07:20 sereno Sereno 25 18 65 1014 10 N 0
Oggi h: 06:50 sereno Sereno 24 17 64 1014 10 N 1.8
Oggi h: 06:20 sereno Sereno 23 17 68 1014 10 N 0
Oggi h: 05:50 sereno Sereno 22 17 73 1014 10 N 5.5
Oggi h: 05:20 sereno Sereno 23 17 68 1014 10 N 1.8
Oggi h: 04:50 sereno Sereno 23 17 68 1014 10 N 3.7
Oggi h: 04:20 sereno Sereno 23 18 73 1014 10 N 0
Oggi h: 03:50 sereno Sereno 23 18 73 1014 10 N 1.8
Oggi h: 03:20 sereno Sereno 24 18 69 1014 10 N 1.8
Oggi h: 02:50 sereno Sereno 24 18 69 1014 10 N 1.8
Oggi h: 02:20 sereno Sereno 24 19 73 1014 10 N 0
Oggi h: 01:50 sereno Sereno 24 18 69 1014 10 N 0
Oggi h: 01:20 sereno Sereno 25 17 61 1014 10 N 0
Oggi h: 00:50 sereno Sereno 25 16 57 1014 10 N 1.8
Oggi h: 00:20 sereno Sereno 26 15 50 1014 10 N 1.8
Ieri h: 23:50 sereno Sereno 26 15 50 1014 10 N 1.8